Aérodrome :
LOGIN :

S'inscrire | Disclaimer

   EN    FR    IT 

 










Légende :    VFR   VFR Marginal   IFR   IFR Intensif   IFR Très Intensif
Visi : 
Plafond : 
>= 8 km
>= 3000ft
5 à 8 km
1000 à 3000 ft
1500m à 5 km
500 à 1000 ft
800 à 1500m
200 à 500 ft
< 800m
< 200 ft
Symboles :   Orages  Brouillard  Fortes neiges  Fortes précipitations  Vent > 20 kt
SIGMETs :   Divers  Orages  Givrage  Turbulence  Onde Orograph.  Cendres Volcan.







- Altitude de l'aérodrome : 231 ft
- Code IATA : WTN


EGXW - RAF Waddington

DERNIER METAR :
  • 250550Z 30009KT 9999 FEW040 01/M04 Q1012 BLU

METARs EXPIRÉS :
  • 250450Z 29008KT 9999 FEW040 M00/M05 Q1011 BLU
  • 250350Z 28008KT CAVOK 00/M05 Q1011 BLU

TAF TAF EGXW
Valide du 25 à 06h jusqu'au 26 à 00h UTC


250423Z 2506/2524 28008KT 9999 FEW030
BECMG 2508/2511 32015KT
PROB40
TEMPO 2511/2518 32018G30KT 7000 SHRA BKN018CB
PROB30
TEMPO 2512/2518 4000 TSGS BKN010 BKN018CB
PROB30
TEMPO 2518/2524 5000 SHRA SCT010 BKN018CB
Pas de NOTAMs connus pour ce terrain.



MET'MAP, la Météo Aéronautique d'un coup d'oeil ! - Copyright ORBIFLY Décembre 2007 - Disclaimer

ORBIFLY MET'MAP TEAM :

Programmation & Développement : Alexandra Zaïnal
Conception & Développement : Baudouin d'Aumeries
Co-Programmation & Développement : Marc-Olivier Méhu
Soutien technique & logistique : Manuel Goepfert

Contact : metmap@orbifly.com




SOURCES & CREDITS :

   NOAA